createdAt,value
2023-05-19T00:02:15.793Z,13.65
2023-05-19T00:05:19.441Z,13.63
2023-05-19T00:08:21.889Z,13.59
2023-05-19T00:11:26.858Z,13.58
2023-05-19T00:14:29.889Z,13.60
2023-05-19T00:17:34.340Z,13.57
2023-05-19T00:20:37.731Z,13.64
2023-05-19T00:23:40.311Z,13.67
2023-05-19T00:26:44.320Z,13.77
2023-05-19T00:29:46.899Z,13.66
2023-05-19T00:32:49.758Z,13.67
2023-05-19T00:35:52.298Z,13.69
2023-05-19T00:38:54.894Z,13.66
2023-05-19T00:41:58.824Z,13.60
2023-05-19T00:45:01.383Z,13.55
2023-05-19T00:48:04.221Z,13.51
2023-05-19T00:51:06.911Z,13.46
2023-05-19T00:54:09.548Z,13.41
2023-05-19T00:57:13.683Z,13.39
2023-05-19T01:00:17.212Z,13.40
2023-05-19T01:03:20.610Z,13.40
2023-05-19T01:06:23.516Z,13.41
2023-05-19T01:09:26.100Z,13.45
2023-05-19T01:12:30.635Z,13.44
2023-05-19T01:15:35.821Z,13.46
2023-05-19T01:18:45.483Z,13.51
2023-05-19T01:22:23.735Z,13.54
2023-05-19T01:25:43.735Z,13.55
2023-05-19T01:29:10.059Z,13.56
2023-05-19T01:32:17.133Z,13.59
2023-05-19T01:35:20.306Z,13.60
2023-05-19T01:38:23.204Z,13.64
2023-05-19T01:41:26.456Z,13.62
2023-05-19T01:44:29.726Z,13.59
2023-05-19T01:47:34.065Z,13.57
2023-05-19T01:50:36.833Z,13.53
2023-05-19T01:53:39.436Z,13.50
2023-05-19T01:56:46.482Z,13.45
2023-05-19T01:59:54.989Z,13.43
2023-05-19T02:03:06.384Z,13.41
2023-05-19T02:06:20.470Z,13.39
2023-05-19T02:09:26.379Z,13.43
2023-05-19T02:12:31.320Z,13.41
2023-05-19T02:15:39.543Z,13.44
2023-05-19T02:18:45.526Z,13.41
2023-05-19T02:21:48.251Z,13.45
2023-05-19T02:24:51.761Z,13.43
2023-05-19T02:27:54.282Z,13.46
2023-05-19T02:30:56.858Z,13.45
2023-05-19T02:34:00.847Z,13.51
2023-05-19T02:37:03.416Z,13.48
2023-05-19T02:40:08.221Z,13.43
2023-05-19T02:43:11.073Z,13.39
2023-05-19T02:46:13.584Z,13.34
2023-05-19T02:49:17.475Z,13.30
2023-05-19T02:52:20.142Z,13.27
2023-05-19T02:55:22.709Z,13.25
2023-05-19T02:58:25.303Z,13.25
2023-05-19T03:01:27.847Z,13.27
2023-05-19T03:04:32.198Z,13.18
2023-05-19T03:07:34.961Z,13.18
2023-05-19T03:10:37.575Z,13.14
2023-05-19T03:13:40.198Z,13.10
2023-05-19T03:16:43.076Z,13.10
2023-05-19T03:19:47.039Z,13.07
2023-05-19T03:22:49.720Z,13.08
2023-05-19T03:25:54.164Z,13.09
2023-05-19T03:28:56.796Z,13.05
2023-05-19T03:31:59.849Z,12.99
2023-05-19T03:35:04.006Z,12.93
2023-05-19T03:38:06.642Z,12.89
2023-05-19T03:41:09.266Z,12.80
2023-05-19T03:44:11.861Z,12.74
2023-05-19T03:47:14.461Z,12.72
2023-05-19T03:50:18.364Z,12.65
2023-05-19T03:53:20.960Z,12.60
2023-05-19T03:56:27.823Z,12.57
2023-05-19T03:59:31.343Z,12.57
2023-05-19T04:02:34.104Z,12.55
2023-05-19T04:05:38.163Z,12.57
2023-05-19T04:08:40.884Z,12.62
2023-05-19T04:11:44.122Z,12.68
2023-05-19T04:14:46.793Z,12.75
2023-05-19T04:17:49.415Z,12.77
2023-05-19T04:20:53.321Z,12.87
2023-05-19T04:23:55.931Z,12.93
2023-05-19T04:27:02.229Z,13.02
2023-05-19T04:30:05.242Z,13.08
2023-05-19T04:33:08.002Z,13.19
2023-05-19T04:36:13.793Z,13.32
2023-05-19T04:39:16.422Z,13.45
2023-05-19T04:42:20.257Z,13.54
2023-05-19T04:45:23.263Z,13.60
2023-05-19T04:48:26.065Z,13.65
2023-05-19T04:51:31.272Z,13.73
2023-05-19T04:54:34.074Z,13.80
2023-05-19T04:57:37.521Z,13.85
2023-05-19T05:00:40.288Z,13.89
2023-05-19T05:03:43.213Z,14.01
2023-05-19T05:06:48.778Z,14.08
2023-05-19T05:09:51.603Z,14.10
2023-05-19T05:12:54.769Z,14.10
2023-05-19T05:15:58.492Z,14.21
2023-05-19T05:19:01.976Z,14.27
2023-05-19T05:22:06.169Z,14.40
2023-05-19T05:25:09.401Z,14.49
2023-05-19T05:28:12.073Z,14.59
2023-05-19T05:31:14.787Z,14.66
2023-05-19T05:34:17.689Z,14.91
2023-05-19T05:37:21.679Z,15.11
2023-05-19T05:40:24.332Z,15.10
2023-05-19T05:43:27.041Z,14.84
2023-05-19T05:46:29.670Z,14.72
2023-05-19T05:49:32.980Z,14.85
2023-05-19T05:52:38.179Z,14.82
2023-05-19T05:55:41.470Z,14.83
2023-05-19T05:58:44.056Z,14.90
2023-05-19T06:01:46.917Z,14.88
2023-05-19T06:04:49.587Z,14.86
2023-05-19T06:07:53.469Z,14.93
2023-05-19T06:10:56.113Z,15.13
2023-05-19T06:13:58.753Z,15.20
2023-05-19T06:17:01.366Z,15.59
2023-05-19T06:20:05.652Z,15.74
2023-05-19T06:23:09.556Z,16.00
2023-05-19T06:26:12.308Z,16.21
2023-05-19T06:29:14.983Z,16.33
2023-05-19T06:32:17.708Z,16.54
2023-05-19T06:35:20.460Z,16.53
2023-05-19T06:38:24.531Z,16.75
2023-05-19T06:41:27.529Z,16.89
2023-05-19T06:44:30.111Z,17.02
2023-05-19T06:47:32.706Z,16.90
2023-05-19T06:50:35.569Z,17.01
2023-05-19T06:53:39.822Z,17.32
2023-05-19T06:56:42.719Z,17.72
2023-05-19T06:59:46.717Z,18.11
2023-05-19T07:02:49.403Z,18.06
2023-05-19T07:05:52.201Z,18.01
2023-05-19T07:08:56.710Z,17.88
2023-05-19T07:12:01.248Z,18.04
2023-05-19T07:15:04.329Z,18.33
2023-05-19T07:18:07.188Z,18.60
2023-05-19T07:21:09.782Z,18.95
2023-05-19T07:24:13.659Z,19.08
2023-05-19T07:27:16.205Z,19.07
2023-05-19T07:30:18.813Z,18.84
2023-05-19T07:33:21.455Z,18.95
2023-05-19T07:36:24.100Z,19.40
2023-05-19T07:39:29.677Z,19.87
2023-05-19T07:42:32.412Z,20.10
2023-05-19T07:45:35.201Z,20.38
2023-05-19T07:48:38.138Z,20.76
2023-05-19T07:51:41.796Z,20.97
2023-05-19T07:54:46.722Z,21.04
2023-05-19T07:57:49.813Z,20.88
2023-05-19T08:00:53.278Z,20.81
2023-05-19T08:03:56.004Z,20.15
2023-05-19T08:06:59.002Z,19.91
2023-05-19T08:10:03.135Z,19.34
2023-05-19T08:13:05.838Z,18.98
2023-05-19T08:16:08.583Z,18.81
2023-05-19T08:19:11.282Z,18.79
2023-05-19T08:22:14.082Z,18.96
2023-05-19T08:25:19.732Z,18.99
2023-05-19T08:28:22.542Z,19.28
2023-05-19T08:31:25.503Z,19.48
2023-05-19T08:34:28.140Z,19.56
2023-05-19T08:37:33.254Z,19.74
2023-05-19T08:40:38.835Z,19.54
2023-05-19T08:43:41.442Z,19.62
2023-05-19T08:46:44.305Z,19.49
2023-05-19T08:49:48.475Z,19.76
2023-05-19T08:52:53.634Z,19.55
2023-05-19T08:56:04.093Z,19.73
2023-05-19T08:59:07.390Z,20.04
2023-05-19T09:02:12.116Z,20.08
2023-05-19T09:05:15.950Z,19.81
2023-05-19T09:08:18.795Z,20.14
2023-05-19T09:11:23.041Z,20.21
2023-05-19T09:14:25.771Z,20.25
2023-05-19T09:17:28.477Z,19.97
2023-05-19T09:20:31.835Z,19.61
2023-05-19T09:23:34.498Z,19.64
2023-05-19T09:26:39.928Z,20.11
2023-05-19T09:29:42.728Z,20.42
2023-05-19T09:32:45.619Z,20.42
2023-05-19T09:35:48.630Z,20.34
2023-05-19T09:38:51.294Z,20.27
2023-05-19T09:41:56.247Z,20.30
2023-05-19T09:45:02.715Z,20.52
2023-05-19T09:48:06.256Z,20.83
2023-05-19T09:51:10.362Z,20.95
2023-05-19T09:54:16.168Z,21.14
2023-05-19T09:57:27.071Z,21.68
2023-05-19T10:00:31.014Z,21.48
2023-05-19T10:03:35.125Z,21.86
2023-05-19T10:06:38.466Z,21.91
2023-05-19T10:09:42.696Z,21.59
2023-05-19T10:12:47.263Z,21.15
2023-05-19T10:19:00.895Z,20.40
2023-05-19T10:22:03.531Z,20.66
2023-05-19T10:25:06.940Z,20.07
2023-05-19T10:28:14.272Z,20.29
2023-05-19T10:31:19.741Z,19.79
2023-05-19T10:34:37.412Z,20.08
2023-05-19T10:37:46.363Z,20.36
2023-05-19T10:40:55.143Z,20.96
2023-05-19T10:44:09.006Z,20.57
2023-05-19T10:47:12.679Z,20.23
2023-05-19T10:50:15.688Z,19.78
2023-05-19T10:53:19.487Z,19.50
2023-05-19T10:56:33.825Z,19.66
2023-05-19T10:59:39.343Z,19.70
2023-05-19T11:02:43.360Z,19.69
2023-05-19T11:05:46.479Z,19.79
2023-05-19T11:08:54.175Z,19.40
2023-05-19T11:11:57.093Z,19.68
2023-05-19T11:15:01.041Z,19.70
2023-05-19T11:18:04.097Z,19.65
2023-05-19T11:21:06.940Z,19.77
2023-05-19T11:24:09.764Z,19.92
2023-05-19T11:27:22.759Z,19.43
2023-05-19T11:30:26.629Z,19.26
2023-05-19T11:33:30.132Z,19.16
2023-05-19T11:36:32.837Z,19.36
2023-05-19T11:39:35.841Z,19.45
2023-05-19T11:42:38.566Z,19.46
2023-05-19T11:45:42.792Z,19.56
2023-05-19T11:48:48.368Z,19.78
2023-05-19T11:51:50.961Z,19.55
2023-05-19T11:54:53.518Z,19.70
2023-05-19T11:58:04.044Z,19.36
2023-05-19T12:01:10.214Z,19.25
2023-05-19T12:04:12.800Z,19.12
2023-05-19T12:07:18.349Z,19.39
2023-05-19T12:10:24.093Z,19.52
2023-05-19T12:13:26.771Z,19.36
2023-05-19T12:16:36.790Z,19.57
2023-05-19T12:19:39.502Z,19.68
2023-05-19T12:22:42.333Z,20.11
2023-05-19T12:25:45.100Z,20.35
2023-05-19T12:28:47.898Z,20.57
2023-05-19T12:31:51.976Z,20.92
2023-05-19T12:34:56.417Z,20.96
2023-05-19T12:38:03.928Z,20.98
2023-05-19T12:41:06.976Z,20.95
2023-05-19T12:44:16.222Z,20.97
2023-05-19T12:47:21.090Z,20.80
2023-05-19T12:50:31.365Z,20.58
2023-05-19T12:53:34.712Z,20.81
2023-05-19T12:56:37.397Z,20.55
2023-05-19T12:59:40.171Z,20.13
2023-05-19T13:02:59.055Z,19.75
2023-05-19T13:06:01.744Z,19.78
2023-05-19T13:09:04.848Z,19.71
2023-05-19T13:12:07.856Z,19.76
2023-05-19T13:15:11.139Z,19.90
2023-05-19T13:18:15.263Z,20.26
2023-05-19T13:21:18.029Z,20.57
2023-05-19T13:24:20.827Z,20.76
2023-05-19T13:27:24.754Z,20.83
2023-05-19T13:30:27.812Z,21.00
2023-05-19T13:33:31.927Z,21.03
2023-05-19T13:36:35.095Z,20.75
2023-05-19T13:39:37.742Z,20.39
2023-05-19T13:42:40.481Z,20.11
2023-05-19T13:45:44.724Z,19.86
2023-05-19T13:48:48.630Z,19.67
2023-05-19T13:51:51.423Z,19.65
2023-05-19T13:54:54.514Z,19.77
2023-05-19T13:57:57.161Z,19.76
2023-05-19T14:01:00.073Z,19.87
2023-05-19T14:04:05.312Z,19.68
2023-05-19T14:07:09.644Z,19.72
2023-05-19T14:10:12.592Z,19.68
2023-05-19T14:16:28.760Z,20.42
2023-05-19T14:19:32.791Z,20.66
2023-05-19T14:22:35.386Z,20.98
2023-05-19T14:25:38.118Z,21.21
2023-05-19T14:28:40.802Z,21.49
2023-05-19T14:31:43.441Z,21.34
2023-05-19T14:34:47.639Z,21.36
2023-05-19T14:37:50.324Z,21.23
2023-05-19T14:40:53.015Z,21.06
2023-05-19T14:43:56.117Z,20.83
2023-05-19T14:46:59.018Z,20.89
2023-05-19T14:50:03.198Z,20.30
2023-05-19T14:53:06.023Z,20.35
2023-05-19T14:56:09.302Z,20.28
2023-05-19T14:59:11.853Z,20.19
2023-05-19T15:02:14.510Z,20.05
2023-05-19T15:05:18.726Z,19.95
2023-05-19T15:08:21.405Z,19.94
2023-05-19T15:11:24.019Z,19.82
2023-05-19T15:14:27.936Z,19.78
2023-05-19T15:17:32.033Z,19.79
2023-05-19T15:20:36.246Z,19.79
2023-05-19T15:23:38.986Z,19.77
2023-05-19T15:26:41.768Z,19.93
2023-05-19T15:29:44.422Z,20.03
2023-05-19T15:32:47.017Z,20.12
2023-05-19T15:35:52.048Z,20.20
2023-05-19T15:38:54.704Z,20.32
2023-05-19T15:41:57.539Z,20.27
2023-05-19T15:45:00.240Z,20.38
2023-05-19T15:48:02.775Z,20.56
2023-05-19T15:51:07.013Z,20.52
2023-05-19T15:54:09.593Z,20.54
2023-05-19T15:57:13.498Z,20.57
2023-05-19T16:00:16.808Z,20.50
2023-05-19T16:03:19.393Z,20.56
2023-05-19T16:06:24.629Z,20.59
2023-05-19T16:09:27.343Z,20.43
2023-05-19T16:12:29.946Z,20.21
2023-05-19T16:15:32.498Z,20.39
2023-05-19T16:18:35.094Z,20.44
2023-05-19T16:21:39.255Z,20.50
2023-05-19T16:24:42.022Z,20.89
2023-05-19T16:27:44.751Z,21.28
2023-05-19T16:30:47.422Z,21.34
2023-05-19T16:33:50.098Z,21.39
2023-05-19T16:36:53.952Z,21.40
2023-05-19T16:39:56.615Z,21.56
2023-05-19T16:42:59.523Z,21.66
2023-05-19T16:46:03.470Z,22.02
2023-05-19T16:49:06.813Z,22.63
2023-05-19T16:52:10.662Z,23.52
2023-05-19T16:55:17.245Z,24.29
2023-05-19T16:58:19.969Z,25.44
2023-05-19T17:01:22.724Z,27.71
2023-05-19T17:04:25.428Z,30.29
2023-05-19T17:07:30.040Z,29.08
2023-05-19T17:10:32.751Z,27.93
2023-05-19T17:13:36.683Z,27.05
2023-05-19T17:16:39.417Z,26.33
2023-05-19T17:19:42.169Z,25.62
2023-05-19T17:22:46.195Z,24.82
2023-05-19T17:25:48.807Z,24.11
2023-05-19T17:28:51.445Z,23.11
2023-05-19T17:31:54.207Z,22.47
2023-05-19T17:34:56.956Z,22.29
2023-05-19T17:38:01.090Z,22.06
2023-05-19T17:41:09.556Z,21.80
2023-05-19T17:44:12.611Z,21.78
2023-05-19T17:47:15.156Z,21.55
2023-05-19T17:50:17.960Z,21.45
2023-05-19T17:53:22.523Z,21.23
2023-05-19T17:56:25.826Z,20.94
2023-05-19T17:59:28.929Z,20.66
2023-05-19T18:02:31.720Z,20.34
2023-05-19T18:05:34.852Z,20.06
2023-05-19T18:08:39.937Z,19.82
2023-05-19T18:11:42.552Z,19.70
2023-05-19T18:14:45.209Z,19.48
2023-05-19T18:17:48.219Z,19.06
2023-05-19T18:20:50.829Z,18.95
2023-05-19T18:23:54.744Z,18.83
2023-05-19T18:26:57.367Z,18.67
2023-05-19T18:30:00.347Z,18.47
2023-05-19T18:33:04.041Z,18.33
2023-05-19T18:36:07.343Z,18.26
2023-05-19T18:39:11.444Z,18.05
2023-05-19T18:42:14.132Z,17.88
2023-05-19T18:45:16.880Z,17.69
2023-05-19T18:48:19.502Z,17.61
2023-05-19T18:51:22.266Z,17.38
2023-05-19T18:54:26.292Z,17.13
2023-05-19T18:57:28.887Z,16.93
2023-05-19T19:00:31.576Z,16.88
2023-05-19T19:03:34.285Z,16.76
2023-05-19T19:06:36.884Z,16.52
2023-05-19T19:09:43.813Z,16.26
2023-05-19T19:12:46.539Z,16.11
2023-05-19T19:15:49.193Z,15.94
2023-05-19T19:18:51.887Z,15.90
2023-05-19T19:21:54.732Z,15.90
2023-05-19T19:24:58.685Z,15.93
2023-05-19T19:28:02.187Z,15.96
2023-05-19T19:31:04.725Z,15.96
2023-05-19T19:34:09.157Z,15.96
2023-05-19T19:37:14.368Z,15.94
2023-05-19T19:40:18.666Z,15.98
2023-05-19T19:43:21.346Z,15.97
2023-05-19T19:46:23.883Z,15.91
2023-05-19T19:49:26.929Z,15.86
2023-05-19T19:52:29.635Z,15.84
2023-05-19T19:55:33.678Z,15.88
2023-05-19T19:58:36.271Z,15.91
2023-05-19T20:01:38.908Z,15.91
2023-05-19T20:04:41.729Z,15.91
2023-05-19T20:07:44.664Z,15.92
2023-05-19T20:10:49.804Z,15.94
2023-05-19T20:13:52.852Z,15.97
2023-05-19T20:16:55.692Z,16.02
2023-05-19T20:19:59.841Z,16.01
2023-05-19T20:23:02.523Z,15.97
2023-05-19T20:26:12.417Z,15.97
2023-05-19T20:29:16.812Z,16.00
2023-05-19T20:32:19.221Z,16.03
2023-05-19T20:35:22.485Z,16.02
2023-05-19T20:38:25.193Z,16.02
2023-05-19T20:41:29.210Z,16.04
2023-05-19T20:44:31.819Z,16.06
2023-05-19T20:47:34.500Z,16.05
2023-05-19T20:50:37.087Z,16.04
2023-05-19T20:53:39.708Z,16.08
2023-05-19T20:56:44.035Z,16.11
2023-05-19T20:59:46.716Z,16.14
2023-05-19T21:02:49.627Z,16.13
2023-05-19T21:05:52.490Z,16.19
2023-05-19T21:08:55.583Z,16.18
2023-05-19T21:11:59.836Z,16.20
2023-05-19T21:15:03.681Z,16.17
2023-05-19T21:18:07.318Z,16.17
2023-05-19T21:21:10.072Z,16.18
2023-05-19T21:24:13.108Z,16.14
2023-05-19T21:27:17.107Z,16.06
2023-05-19T21:30:20.259Z,16.04
2023-05-19T21:33:23.071Z,16.04
2023-05-19T21:36:25.785Z,15.94
2023-05-19T21:39:28.566Z,15.91
2023-05-19T21:42:32.530Z,15.85
2023-05-19T21:45:35.076Z,15.71
2023-05-19T21:48:37.677Z,15.60
2023-05-19T21:51:40.192Z,15.55
2023-05-19T21:54:43.106Z,15.44
2023-05-19T21:57:47.065Z,15.21
2023-05-19T22:00:50.779Z,15.02
2023-05-19T22:03:53.964Z,14.80
2023-05-19T22:06:56.615Z,14.60
2023-05-19T22:09:59.197Z,14.49
2023-05-19T22:13:03.092Z,14.40
2023-05-19T22:16:06.143Z,14.25
2023-05-19T22:19:08.835Z,14.16
2023-05-19T22:22:14.102Z,14.07
2023-05-19T22:25:17.623Z,14.07
2023-05-19T22:28:21.498Z,14.01
2023-05-19T22:31:24.142Z,13.93
2023-05-19T22:34:26.701Z,13.83
2023-05-19T22:37:29.610Z,13.74
2023-05-19T22:40:32.516Z,13.64
2023-05-19T22:43:36.660Z,13.53
2023-05-19T22:46:39.219Z,13.55
2023-05-19T22:49:42.291Z,13.63
2023-05-19T22:52:44.927Z,13.65
2023-05-19T22:55:47.599Z,13.60
2023-05-19T22:58:51.651Z,13.59
2023-05-19T23:01:54.346Z,13.74
2023-05-19T23:04:56.963Z,13.79
2023-05-19T23:07:59.506Z,13.76
2023-05-19T23:11:02.290Z,13.77
2023-05-19T23:14:06.157Z,13.83
2023-05-19T23:17:08.903Z,13.80
2023-05-19T23:20:13.265Z,13.78
2023-05-19T23:23:17.219Z,13.73
2023-05-19T23:26:19.791Z,13.71
2023-05-19T23:29:23.690Z,13.70
2023-05-19T23:32:27.115Z,13.72
2023-05-19T23:35:29.698Z,13.78
2023-05-19T23:38:32.483Z,13.75
2023-05-19T23:41:35.160Z,13.81
2023-05-19T23:44:39.509Z,13.78
2023-05-19T23:47:42.089Z,13.82
2023-05-19T23:50:44.909Z,13.89
2023-05-19T23:53:47.471Z,13.87
2023-05-19T23:56:50.052Z,13.85
2023-05-19T23:59:53.889Z,13.75
